Bratsk, Russia

10:48 AM IRKT on October 01, 2014 (GMT +0900)
Bratsk | Change Station
CLOSE
Current Station
Airport
Location: Bratsk,
Elevation: 1608 ft
Nearby Weather Stations

Elev 1608 ft 56.37 °N, 101.70 °E | Updated 18 minutes ago

Mostly Cloudy
Mostly Cloudy
34 °F
Feels Like 34 °F
N
2
Wind Variable Wind from NE

Today
High -- | Low -- °F
--% Chance of Precip.
Yesterday
High -- | Low -- °F
Precip. -- in
8:15 AM 7:49 PM
Waxing Crescent, 42% visible
Pressure 30.09 in
Visibility 6.2 miles
Clouds Mostly Cloudy 10000 ft
Dew Point 23 °F
Humidity 65%
Rainfall 0.00 in
Snow Depth Not available.
UV 1 out of 12
Pollen Not available.
Air Quality Not available.
Flu Activity Not available.
METAR UIBB 010130Z 04001MPS 9999 BKN100 01/M05 Q1019 NOSIG RMK QFE721/0962 30CLRD60

More Conditions Fewer Conditions

Pressure 30.09 in
Visibility 6.2 miles
Clouds Mostly Cloudy 10000 ft
Dew Point 23 °F
Humidity 65%
Rainfall 0.00 in
Snow Depth Not available.
UV 1 out of 12
Pollen Not available.
Air Quality Not available.
Flu Activity Not available.
METAR UIBB 010130Z 04001MPS 9999 BKN100 01/M05 Q1019 NOSIG RMK QFE721/0962 30CLRD60

More Conditions Fewer Conditions

10-Day Weather Forecast

Almanac

Astronomy

Oct. 01, 2014 Rise Set
Actual Time 8:15 AM IRKT 7:49 PM IRKT
Civil Twilight 7:38 AM IRKT 8:26 PM IRKT
Nautical Twilight 6:54 AM IRKT 9:10 PM IRKT
Astronomical Twilight 6:08 AM IRKT 9:55 PM IRKT
Moon 3:39 PM IRKT 11:57 PM IRKT
Length of Visible Light 12h 48m
Length of Day
11h 33m
Tomorrow will be 4m 41s shorter.
Waxing Crescent, 42% of the Moon is Illuminated
Sep 30
Waxing Crescent
Oct 1
First Quarter
Oct 8
Full
Oct 15
Last Quarter
Oct 23
New

Yesterday's Extremes

Country Highs Country Lows

Community

WunderPhotos

Upload Photos

1,757,821 photos uploaded!

Nearby

Snow Depth

Not available.

Earthquake Activity

City Distance Mag. Time & Date
No recent earthquake activity has been reported nearby.
Minimum magnitude displayed is 2.5.

Coastal Water Temperatures

Place Temperature
No Stations Reporting

Nearby Weather Stations